Time;durP1;ratioP1;P1;durP2;ratioP2;P2;SDS_P1;SDS_P2;PMS_P1;PMS_P2;Temp;Humidity;BMP_temperature;BMP_pressure;BME280_temperature;BME280_humidity;BME280_pressure;Samples;Min_cycle;Max_cycle;Signal;HPM_P1;HPM_P2
2023/06/28 00:00:15;;;;;;;85.25;53.95;;;20.90;66.50;;;;;;4965063;28;89987;-80
2023/06/28 00:02:42;;;;;;;87.63;53.85;;;20.90;66.70;;;;;;4963045;28;90012;-82
2023/06/28 00:05:09;;;;;;;85.45;53.78;;;20.80;67.70;;;;;;4988262;28;91180;-80
2023/06/28 00:07:35;;;;;;;84.50;53.75;;;20.80;67.40;;;;;;4981778;28;89608;-81
2023/06/28 00:10:01;;;;;;;85.53;53.72;;;20.70;67.50;;;;;;4963494;28;92456;-80
2023/06/28 00:12:29;;;;;;;85.30;54.10;;;20.80;67.10;;;;;;4958576;28;90800;-82
2023/06/28 00:14:55;;;;;;;84.18;54.17;;;20.80;67.70;;;;;;4972460;28;90002;-82
2023/06/28 00:17:27;;;;;;;85.50;54.08;;;20.70;67.30;;;;;;4981872;28;89774;-80
2023/06/28 00:19:54;;;;;;;84.13;53.92;;;20.70;68.50;;;;;;4963545;28;90452;-80
2023/06/28 00:22:22;;;;;;;85.18;53.67;;;20.70;67.10;;;;;;4979341;28;89321;-83
2023/06/28 00:24:47;;;;;;;85.70;53.75;;;20.70;67.60;;;;;;4980715;28;91640;-81
2023/06/28 00:27:13;;;;;;;84.93;53.72;;;20.70;67.70;;;;;;4958598;28;93076;-80
2023/06/28 00:29:38;;;;;;;84.45;54.10;;;20.70;67.30;;;;;;4966746;28;89719;-81
2023/06/28 00:32:04;;;;;;;83.95;53.83;;;20.70;67.10;;;;;;4984775;28;89549;-80
2023/06/28 00:34:30;;;;;;;85.75;53.80;;;20.70;67.60;;;;;;4985281;28;92602;-80
2023/06/28 00:36:55;;;;;;;83.78;53.60;;;20.70;67.10;;;;;;4988605;28;92381;-82
2023/06/28 00:39:21;;;;;;;85.13;54.05;;;20.70;67.50;;;;;;4968948;28;90113;-81
2023/06/28 00:41:46;;;;;;;85.13;53.78;;;20.70;67.30;;;;;;4968421;28;88985;-80
2023/06/28 00:44:12;;;;;;;83.43;53.13;;;20.70;67.50;;;;;;4983083;28;89993;-80
2023/06/28 00:46:38;;;;;;;84.50;53.55;;;20.70;67.50;;;;;;4966589;28;92563;-81
2023/06/28 00:49:04;;;;;;;84.65;53.83;;;20.70;67.80;;;;;;4971624;28;90654;-80
2023/06/28 00:51:31;;;;;;;84.68;54.10;;;20.70;67.70;;;;;;4971642;28;89915;-80
2023/06/28 00:53:57;;;;;;;85.35;53.55;;;20.70;67.90;;;;;;4983763;28;90458;-80
2023/06/28 00:56:24;;;;;;;85.03;53.90;;;20.70;67.90;;;;;;4983273;28;91365;-80
2023/06/28 00:58:51;;;;;;;85.45;53.45;;;20.60;67.90;;;;;;4985030;28;90136;-80
2023/06/28 01:01:17;;;;;;;84.80;53.38;;;20.60;67.50;;;;;;4971153;28;91355;-80
2023/06/28 01:03:42;;;;;;;86.60;53.75;;;20.60;67.70;;;;;;4981313;28;90681;-82
2023/06/28 01:06:12;;;;;;;84.22;53.85;;;20.60;68.00;;;;;;4987146;28;90664;-81
2023/06/28 01:08:40;;;;;;;84.55;53.55;;;20.60;68.00;;;;;;4986189;28;91118;-83
2023/06/28 01:11:06;;;;;;;85.15;53.88;;;20.60;68.30;;;;;;4966783;28;89552;-81
2023/06/28 01:13:34;;;;;;;84.15;53.80;;;20.60;68.10;;;;;;4962834;28;94821;-81
2023/06/28 01:16:00;;;;;;;84.50;53.72;;;20.60;68.10;;;;;;4984253;28;91000;-81
2023/06/28 01:18:26;;;;;;;84.13;53.88;;;20.60;68.10;;;;;;4972802;28;90451;-80
2023/06/28 01:20:55;;;;;;;86.13;54.03;;;20.60;68.30;;;;;;4963502;28;91958;-83
2023/06/28 01:23:27;;;;;;;84.95;54.08;;;20.60;68.30;;;;;;4964536;28;92669;-80
2023/06/28 01:25:55;;;;;;;84.60;53.90;;;20.60;68.30;;;;;;4968688;28;91739;-79
2023/06/28 01:28:21;;;;;;;85.32;54.42;;;20.60;68.40;;;;;;4984870;28;89467;-81
2023/06/28 01:30:48;;;;;;;84.95;53.80;;;20.60;68.30;;;;;;4980092;28;88760;-82
2023/06/28 01:33:15;;;;;;;84.05;53.65;;;20.60;68.30;;;;;;4983400;28;90706;-81
2023/06/28 01:35:41;;;;;;;85.35;53.85;;;20.50;68.30;;;;;;4983766;28;92730;-83
2023/06/28 01:38:09;;;;;;;84.40;53.78;;;20.60;68.30;;;;;;4981969;28;91203;-80
2023/06/28 01:40:36;;;;;;;85.78;54.03;;;20.50;68.60;;;;;;4963913;28;90266;-82
2023/06/28 01:43:06;;;;;;;87.40;53.83;;;20.50;68.60;;;;;;4982100;28;89802;-80
2023/06/28 01:45:35;;;;;;;85.27;53.93;;;20.50;68.60;;;;;;4965734;28;94126;-80
2023/06/28 01:48:01;;;;;;;84.43;53.63;;;20.50;69.20;;;;;;4965916;28;89994;-79
2023/06/28 01:50:28;;;;;;;83.88;53.72;;;20.50;68.30;;;;;;4965205;28;89591;-80
2023/06/28 01:53:00;;;;;;;84.53;53.72;;;20.50;68.60;;;;;;4964016;28;92975;-80
2023/06/28 01:55:25;;;;;;;84.25;53.85;;;20.50;68.90;;;;;;4967286;28;93629;-81
2023/06/28 01:57:51;;;;;;;84.68;54.08;;;20.50;68.70;;;;;;4985425;28;89678;-80
2023/06/28 02:00:17;;;;;;;83.90;53.50;;;20.50;68.60;;;;;;4968445;28;89962;-80
2023/06/28 02:02:44;;;;;;;84.30;54.10;;;20.50;69.20;;;;;;4986995;28;94008;-80
2023/06/28 02:05:09;;;;;;;83.95;53.67;;;20.50;69.10;;;;;;4965443;28;94008;-80
2023/06/28 02:07:35;;;;;;;85.70;54.20;;;20.50;69.00;;;;;;4980980;28;89029;-80
2023/06/28 02:10:01;;;;;;;85.05;53.55;;;20.50;68.90;;;;;;4984291;28;89857;-80
2023/06/28 02:12:26;;;;;;;85.00;54.22;;;20.50;68.90;;;;;;4977678;28;90962;-79
2023/06/28 02:14:52;;;;;;;83.68;53.72;;;20.40;68.90;;;;;;4963334;28;92793;-80
2023/06/28 02:17:20;;;;;;;84.65;53.83;;;20.50;68.90;;;;;;4983237;28;90084;-79
2023/06/28 02:19:47;;;;;;;86.38;53.88;;;20.40;69.10;;;;;;4964008;28;89729;-83
2023/06/28 02:22:16;;;;;;;85.32;53.95;;;20.40;69.00;;;;;;4965100;28;94303;-80
2023/06/28 02:24:42;;;;;;;85.00;53.92;;;20.40;69.10;;;;;;4980721;28;90640;-80
2023/06/28 02:27:09;;;;;;;83.45;53.75;;;20.40;69.10;;;;;;4962600;28;93087;-82
2023/06/28 02:29:35;;;;;;;85.05;53.83;;;20.40;69.30;;;;;;4964946;28;93998;-79
2023/06/28 02:32:00;;;;;;;85.28;54.13;;;20.40;69.20;;;;;;4955014;28;92578;-80
2023/06/28 02:34:26;;;;;;;84.20;53.85;;;20.40;69.30;;;;;;4976341;28;92031;-81
2023/06/28 02:36:52;;;;;;;84.05;53.85;;;20.40;69.20;;;;;;4961404;28;90636;-81
2023/06/28 02:39:18;;;;;;;84.40;53.90;;;20.40;69.30;;;;;;4988407;28;91006;-79
2023/06/28 02:41:44;;;;;;;83.53;53.35;;;20.40;69.40;;;;;;4961187;28;98426;-80
2023/06/28 02:44:09;;;;;;;83.30;53.40;;;20.40;69.50;;;;;;4985124;28;89726;-80
2023/06/28 02:46:35;;;;;;;83.55;53.85;;;20.40;69.30;;;;;;4979642;28;91510;-79
2023/06/28 02:49:01;;;;;;;84.20;53.78;;;20.40;69.60;;;;;;4962829;28;90626;-82
2023/06/28 02:51:26;;;;;;;83.07;53.40;;;20.40;69.80;;;;;;4967389;28;94829;-80
2023/06/28 02:53:52;;;;;;;83.18;53.42;;;20.30;69.60;;;;;;4961991;28;93543;-83
2023/06/28 02:56:18;;;;;;;84.90;53.85;;;20.30;69.70;;;;;;4977749;28;90568;-83
2023/06/28 02:58:43;;;;;;;84.82;53.70;;;20.30;69.60;;;;;;4983599;28;90074;-83
2023/06/28 03:01:09;;;;;;;84.20;53.55;;;20.30;69.80;;;;;;4962256;28;93439;-80
2023/06/28 03:03:36;;;;;;;84.93;53.83;;;20.30;69.70;;;;;;4989851;28;94329;-80
2023/06/28 03:06:02;;;;;;;85.40;53.78;;;20.30;69.80;;;;;;4964341;28;89642;-82
2023/06/28 03:08:27;;;;;;;83.97;53.88;;;20.30;69.80;;;;;;4961806;28;90988;-80
2023/06/28 03:10:53;;;;;;;84.90;53.97;;;20.30;69.80;;;;;;4966565;28;94962;-80
2023/06/28 03:13:19;;;;;;;83.97;53.65;;;20.30;70.00;;;;;;4973537;28;93019;-80
2023/06/28 03:15:44;;;;;;;83.40;53.55;;;20.30;69.90;;;;;;4968271;28;90657;-81
2023/06/28 03:18:10;;;;;;;84.07;53.75;;;20.30;69.90;;;;;;4958114;28;90256;-80
2023/06/28 03:20:35;;;;;;;86.57;54.22;;;20.30;69.90;;;;;;4975734;28;92881;-80
2023/06/28 03:23:03;;;;;;;85.18;54.10;;;20.30;69.90;;;;;;4987890;28;90015;-81
2023/06/28 03:25:29;;;;;;;84.28;54.10;;;20.30;69.90;;;;;;4971885;28;91373;-79
2023/06/28 03:27:55;;;;;;;84.50;53.88;;;20.30;70.00;;;;;;4963776;28;90502;-80
2023/06/28 03:30:21;;;;;;;83.72;53.70;;;20.30;70.10;;;;;;4980184;28;90186;-80
2023/06/28 03:32:46;;;;;;;84.10;53.85;;;20.30;70.10;;;;;;4961668;28;92480;-80
2023/06/28 03:35:12;;;;;;;83.63;53.75;;;20.30;70.10;;;;;;4963537;28;90366;-79
2023/06/28 03:37:38;;;;;;;84.25;53.78;;;20.30;70.10;;;;;;4986389;28;90044;-83
2023/06/28 03:40:04;;;;;;;84.00;54.08;;;20.20;70.10;;;;;;4963176;28;95377;-80
2023/06/28 03:42:30;;;;;;;84.25;54.00;;;20.20;70.10;;;;;;4964444;28;93758;-80
2023/06/28 03:44:55;;;;;;;83.45;53.53;;;20.20;70.20;;;;;;4981634;28;89091;-83
2023/06/28 03:47:21;;;;;;;85.57;53.85;;;20.20;70.30;;;;;;4961819;28;89813;-80
2023/06/28 03:49:47;;;;;;;84.43;53.95;;;20.20;70.30;;;;;;4967656;28;92605;-79
2023/06/28 03:52:13;;;;;;;85.07;54.28;;;20.20;70.30;;;;;;4963366;28;93725;-79
2023/06/28 03:54:38;;;;;;;83.00;53.83;;;20.20;70.20;;;;;;4961822;28;92060;-81
2023/06/28 03:57:04;;;;;;;84.53;53.85;;;20.20;70.20;;;;;;4986568;28;88899;-79
2023/06/28 03:59:30;;;;;;;84.63;53.72;;;20.20;70.30;;;;;;4962738;28;93041;-79
2023/06/28 04:01:56;;;;;;;84.47;53.92;;;20.20;70.40;;;;;;4963518;28;93144;-79
2023/06/28 04:04:21;;;;;;;85.13;54.03;;;20.20;70.30;;;;;;4988169;28;90991;-80
2023/06/28 04:06:47;;;;;;;84.50;53.78;;;20.20;70.30;;;;;;4979775;28;89337;-80
2023/06/28 04:09:14;;;;;;;84.40;53.60;;;20.20;70.40;;;;;;4969643;28;95376;-80
2023/06/28 04:11:39;;;;;;;84.05;53.58;;;20.20;70.50;;;;;;4993916;28;90628;-80
2023/06/28 04:14:05;;;;;;;84.60;54.10;;;20.20;70.60;;;;;;4994891;28;89422;-79
2023/06/28 04:16:30;;;;;;;83.72;53.92;;;20.20;70.40;;;;;;4986428;28;89562;-81
2023/06/28 04:18:56;;;;;;;84.63;53.88;;;20.20;70.50;;;;;;4977782;28;93112;-80
2023/06/28 04:21:21;;;;;;;83.85;53.97;;;20.20;70.60;;;;;;4993452;28;90981;-83
2023/06/28 04:23:47;;;;;;;86.13;54.33;;;20.20;70.50;;;;;;4972810;28;89679;-80
2023/06/28 04:26:13;;;;;;;83.18;53.38;;;20.20;70.50;;;;;;4969206;28;90082;-82
2023/06/28 04:28:38;;;;;;;83.97;53.75;;;20.20;70.50;;;;;;4985386;28;92207;-81
2023/06/28 04:31:04;;;;;;;85.00;54.03;;;20.20;70.50;;;;;;4983557;28;92878;-80
2023/06/28 04:33:30;;;;;;;85.15;54.00;;;20.20;70.60;;;;;;4985291;28;90048;-81
2023/06/28 04:35:57;;;;;;;83.47;53.83;;;20.20;70.60;;;;;;4973128;28;89609;-81
2023/06/28 04:38:23;;;;;;;84.78;54.17;;;20.20;70.60;;;;;;4968619;28;93367;-81
2023/06/28 04:40:49;;;;;;;83.78;54.05;;;20.20;70.80;;;;;;4975600;28;93532;-81
2023/06/28 04:43:15;;;;;;;85.13;54.45;;;20.20;70.60;;;;;;4992106;28;90363;-80
2023/06/28 04:45:41;;;;;;;83.85;53.70;;;20.20;70.60;;;;;;4988312;28;88709;-80
2023/06/28 04:48:07;;;;;;;84.45;54.40;;;20.20;70.60;;;;;;4967307;28;93901;-80
2023/06/28 04:50:37;;;;;;;83.60;53.80;;;20.20;70.80;;;;;;4987433;28;90472;-81
2023/06/28 04:53:04;;;;;;;84.15;54.03;;;20.20;70.70;;;;;;4979113;28;90706;-83
2023/06/28 04:55:32;;;;;;;83.60;53.65;;;20.30;70.70;;;;;;4962098;28;89521;-80
2023/06/28 04:58:02;;;;;;;84.47;54.22;;;20.20;70.70;;;;;;4967730;28;93332;-81
2023/06/28 05:00:29;;;;;;;85.93;54.10;;;20.30;70.60;;;;;;4950968;28;93563;-81
2023/06/28 05:02:56;;;;;;;82.97;53.75;;;20.30;70.70;;;;;;4961142;28;90319;-83
2023/06/28 05:05:29;;;;;;;84.40;54.05;;;20.30;70.60;;;;;;4961709;28;89284;-82
2023/06/28 05:07:55;;;;;;;85.07;54.15;;;20.30;70.80;;;;;;4966214;28;92671;-82
2023/06/28 05:10:22;;;;;;;84.60;53.83;;;20.30;70.60;;;;;;4955354;28;90336;-82
2023/06/28 05:12:51;;;;;;;84.95;53.80;;;20.30;70.40;;;;;;4955387;28;89596;-82
2023/06/28 05:15:19;;;;;;;85.00;53.72;;;20.30;70.40;;;;;;4956082;28;89784;-81
2023/06/28 05:17:45;;;;;;;86.45;54.00;;;20.30;70.60;;;;;;4953095;28;94286;-80
2023/06/28 05:20:11;;;;;;;84.40;54.05;;;20.30;70.50;;;;;;4959284;28;90592;-82
2023/06/28 05:22:43;;;;;;;84.47;53.88;;;20.30;70.50;;;;;;4953547;28;93728;-81
2023/06/28 05:25:08;;;;;;;84.60;53.67;;;20.30;70.50;;;;;;4956661;28;90024;-82
2023/06/28 05:27:34;;;;;;;84.72;53.65;;;20.30;70.70;;;;;;4950746;28;94186;-82
2023/06/28 05:30:00;;;;;;;86.30;53.90;;;20.40;71.10;;;;;;4960127;28;89709;-80
2023/06/28 05:32:25;;;;;;;84.85;53.83;;;20.40;71.00;;;;;;4962765;28;89417;-81
2023/06/28 05:34:51;;;;;;;89.25;54.13;;;20.40;70.90;;;;;;4960291;28;89284;-81
2023/06/28 05:37:16;;;;;;;87.30;54.35;;;20.40;71.10;;;;;;4954243;28;94234;-82
2023/06/28 05:39:42;;;;;;;85.43;54.30;;;20.40;71.40;;;;;;4959530;28;89564;-83
2023/06/28 05:42:08;;;;;;;94.70;55.55;;;20.40;71.30;;;;;;4956149;28;91707;-85
2023/06/28 05:44:33;;;;;;;88.10;54.80;;;20.40;71.70;;;;;;4958191;28;89615;-82
2023/06/28 05:46:59;;;;;;;90.10;55.28;;;20.40;70.80;;;;;;4957714;28;95069;-83
2023/06/28 05:49:24;;;;;;;91.82;55.47;;;20.40;72.30;;;;;;4958551;28;89838;-83
2023/06/28 05:51:50;;;;;;;91.55;55.72;;;20.20;73.90;;;;;;4955531;28;88969;-81
2023/06/28 05:54:16;;;;;;;92.97;56.47;;;20.20;75.10;;;;;;4957050;28;90088;-79
2023/06/28 05:56:42;;;;;;;88.97;55.85;;;20.00;77.50;;;;;;4958885;28;90399;-83
2023/06/28 05:59:08;;;;;;;88.25;55.33;;;19.90;78.40;;;;;;4977011;28;92293;-80
2023/06/28 06:01:33;;;;;;;88.95;56.13;;;19.90;78.20;;;;;;4959744;28;90090;-81
2023/06/28 06:03:59;;;;;;;89.95;55.72;;;20.00;78.00;;;;;;4964469;28;89795;-80
2023/06/28 06:06:24;;;;;;;93.97;56.25;;;20.30;77.30;;;;;;4970011;28;92401;-80
2023/06/28 06:08:50;;;;;;;90.03;55.90;;;20.40;76.50;;;;;;4963014;28;93785;-80
2023/06/28 06:11:16;;;;;;;93.20;55.75;;;20.40;76.70;;;;;;4956692;28;91154;-80
2023/06/28 06:13:41;;;;;;;93.65;56.08;;;20.40;75.80;;;;;;4956260;28;89682;-81
2023/06/28 06:16:07;;;;;;;90.05;55.95;;;20.60;75.90;;;;;;4960964;28;93064;-84
2023/06/28 06:18:36;;;;;;;87.65;55.75;;;20.70;75.00;;;;;;4963046;28;89529;-82
2023/06/28 06:21:01;;;;;;;90.32;56.17;;;20.70;75.30;;;;;;4960027;28;90813;-81
2023/06/28 06:23:27;;;;;;;87.43;56.08;;;20.80;75.00;;;;;;4985393;28;89230;-84
2023/06/28 06:25:53;;;;;;;92.60;56.03;;;20.70;75.20;;;;;;4967796;28;90629;-80
2023/06/28 06:28:18;;;;;;;93.38;56.55;;;20.70;74.80;;;;;;4964355;28;92306;-82
2023/06/28 06:30:44;;;;;;;93.00;56.47;;;20.80;74.10;;;;;;4966363;28;90983;-83
2023/06/28 06:33:09;;;;;;;92.50;55.53;;;20.80;75.40;;;;;;4985835;28;88905;-84
2023/06/28 06:35:35;;;;;;;88.40;56.05;;;20.80;75.30;;;;;;4982623;28;93266;-83
2023/06/28 06:38:00;;;;;;;89.28;55.95;;;20.90;75.40;;;;;;4967042;28;93357;-81
2023/06/28 06:40:26;;;;;;;90.82;56.20;;;21.00;75.00;;;;;;4960459;28;89207;-83
2023/06/28 06:42:52;;;;;;;93.47;56.95;;;21.00;74.40;;;;;;4965031;28;90393;-83
2023/06/28 06:45:19;;;;;;;92.40;56.90;;;21.00;74.00;;;;;;4955711;28;90784;-83
2023/06/28 06:47:45;;;;;;;93.57;57.30;;;20.90;74.10;;;;;;4961250;28;92016;-85
2023/06/28 06:50:11;;;;;;;90.03;56.40;;;20.90;74.50;;;;;;4965604;28;90656;-82
2023/06/28 06:52:37;;;;;;;96.50;58.05;;;21.10;73.70;;;;;;4962787;28;89295;-81
2023/06/28 06:55:04;;;;;;;96.63;57.13;;;21.30;73.30;;;;;;4953988;28;92936;-82
2023/06/28 06:57:29;;;;;;;95.28;57.13;;;21.20;73.10;;;;;;4960365;28;94571;-82
2023/06/28 06:59:55;;;;;;;94.50;56.60;;;21.30;72.50;;;;;;4960966;28;89935;-81
2023/06/28 07:02:21;;;;;;;92.30;57.28;;;21.30;73.20;;;;;;4959768;28;89436;-82
2023/06/28 07:04:47;;;;;;;97.45;57.50;;;21.30;71.80;;;;;;4962264;28;90451;-81
2023/06/28 07:07:13;;;;;;;96.60;57.47;;;21.40;73.60;;;;;;4957742;28;90193;-82
2023/06/28 07:09:39;;;;;;;97.03;57.78;;;21.50;73.20;;;;;;4955796;28;89877;-81
2023/06/28 07:12:05;;;;;;;95.45;57.80;;;21.60;72.60;;;;;;4966975;28;90026;-80
2023/06/28 07:14:31;;;;;;;94.47;57.83;;;21.70;72.70;;;;;;4962777;28;92787;-81
2023/06/28 07:16:56;;;;;;;93.05;58.10;;;21.80;71.70;;;;;;4957248;28;92623;-80
2023/06/28 07:19:22;;;;;;;91.80;57.13;;;21.70;72.00;;;;;;4948983;28;90289;-81
2023/06/28 07:21:48;;;;;;;91.20;57.22;;;21.70;72.70;;;;;;4948756;28;90308;-80
2023/06/28 07:24:13;;;;;;;92.80;57.45;;;21.70;73.70;;;;;;4958530;28;95306;-86
2023/06/28 07:26:39;;;;;;;95.97;58.47;;;21.80;73.50;;;;;;4958580;28;92429;-82
2023/06/28 07:29:04;;;;;;;96.20;57.72;;;21.80;72.40;;;;;;4954412;28;89839;-83
2023/06/28 07:31:30;;;;;;;95.68;58.13;;;21.90;72.70;;;;;;4960265;28;93870;-80
2023/06/28 07:33:56;;;;;;;96.25;58.58;;;21.90;72.60;;;;;;4965370;28;91977;-82
2023/06/28 07:36:22;;;;;;;91.13;57.10;;;21.80;72.80;;;;;;4961597;28;89385;-80
2023/06/28 07:38:49;;;;;;;93.78;58.35;;;21.70;71.80;;;;;;4960343;28;89857;-81
2023/06/28 07:41:15;;;;;;;94.30;57.72;;;21.80;72.80;;;;;;4967774;28;89456;-81
2023/06/28 07:43:40;;;;;;;95.43;58.38;;;21.90;73.10;;;;;;4966298;28;90091;-82
2023/06/28 07:46:06;;;;;;;97.13;58.33;;;22.00;73.00;;;;;;4982554;28;93198;-81
2023/06/28 07:48:32;;;;;;;96.85;58.28;;;22.10;73.10;;;;;;4966697;28;89491;-81
2023/06/28 07:50:57;;;;;;;97.88;59.15;;;22.10;72.30;;;;;;4951497;28;90128;-79
2023/06/28 07:53:23;;;;;;;94.15;57.28;;;22.10;73.00;;;;;;4960247;28;91048;-80
2023/06/28 07:55:49;;;;;;;91.22;57.53;;;22.00;73.00;;;;;;4965667;28;90304;-80
2023/06/28 07:58:15;;;;;;;96.07;58.17;;;21.90;73.00;;;;;;4980828;28;89393;-83
2023/06/28 08:00:41;;;;;;;96.63;58.38;;;21.90;72.80;;;;;;4970511;28;88601;-80
2023/06/28 08:03:06;;;;;;;92.60;58.10;;;21.80;73.10;;;;;;4984081;28;89958;-81
2023/06/28 08:05:32;;;;;;;100.97;59.78;;;21.80;73.20;;;;;;4982449;28;93750;-81
2023/06/28 08:07:57;;;;;;;95.93;58.28;;;21.90;74.10;;;;;;4966034;28;91461;-80
2023/06/28 08:10:25;;;;;;;95.40;59.47;;;22.00;73.40;;;;;;4965042;28;90312;-80
2023/06/28 08:12:51;;;;;;;94.20;58.60;;;22.20;73.10;;;;;;4965463;28;91244;-80
2023/06/28 08:15:18;;;;;;;97.20;59.10;;;22.10;72.80;;;;;;4986441;28;91039;-79
2023/06/28 08:17:44;;;;;;;97.38;58.83;;;22.20;72.70;;;;;;4980591;28;90067;-80
2023/06/28 08:20:09;;;;;;;100.50;58.92;;;22.20;73.40;;;;;;4983621;28;91074;-83
2023/06/28 08:22:35;;;;;;;98.25;58.50;;;22.30;73.00;;;;;;4980203;28;91268;-83
2023/06/28 08:25:01;;;;;;;97.75;58.92;;;22.30;72.90;;;;;;4962123;28;93027;-80
2023/06/28 08:27:26;;;;;;;98.93;59.50;;;22.40;72.90;;;;;;4982970;28;89997;-81
2023/06/28 08:29:52;;;;;;;97.68;59.55;;;22.50;72.80;;;;;;4967245;28;89415;-79
2023/06/28 08:32:17;;;;;;;96.38;59.33;;;22.50;72.10;;;;;;4962964;28;94200;-78
2023/06/28 08:34:43;;;;;;;97.65;59.63;;;22.50;73.00;;;;;;4980357;28;90280;-79
2023/06/28 08:37:09;;;;;;;103.43;60.20;;;22.60;71.80;;;;;;4983391;28;89642;-81
2023/06/28 08:39:37;;;;;;;96.25;58.65;;;22.60;71.90;;;;;;4984221;28;90415;-81
2023/06/28 08:42:04;;;;;;;97.65;59.17;;;22.70;70.10;;;;;;4964747;28;93804;-81
2023/06/28 08:44:32;;;;;;;97.57;59.50;;;22.60;70.50;;;;;;4964777;28;92903;-80
2023/06/28 08:46:59;;;;;;;95.25;59.03;;;22.70;71.10;;;;;;4964292;28;89811;-78
2023/06/28 08:49:25;;;;;;;98.30;60.60;;;22.70;71.40;;;;;;4980383;28;88623;-79
2023/06/28 08:51:52;;;;;;;99.03;60.08;;;22.70;71.80;;;;;;4980159;28;90710;-79
2023/06/28 08:54:20;;;;;;;100.40;60.50;;;22.60;71.80;;;;;;4986376;28;89664;-78
2023/06/28 08:56:46;;;;;;;102.85;60.38;;;22.60;72.30;;;;;;4978485;28;92194;-79
2023/06/28 08:59:12;;;;;;;98.47;60.10;;;22.60;72.30;;;;;;4966864;28;89638;-80
2023/06/28 09:01:38;;;;;;;96.05;58.92;;;22.60;72.70;;;;;;4968605;28;92980;-79
2023/06/28 09:04:05;;;;;;;96.65;60.25;;;22.70;72.60;;;;;;4961855;28;92333;-80
2023/06/28 09:06:31;;;;;;;96.57;59.72;;;22.80;71.80;;;;;;4980377;28;89502;-78
2023/06/28 09:08:57;;;;;;;99.00;60.97;;;22.50;71.60;;;;;;4964935;28;90592;-78
2023/06/28 09:11:25;;;;;;;99.78;60.83;;;22.60;71.90;;;;;;4969131;28;92959;-78
2023/06/28 09:13:51;;;;;;;98.18;61.28;;;22.70;72.60;;;;;;4964893;28;93115;-79
2023/06/28 09:16:17;;;;;;;97.47;59.40;;;22.70;71.70;;;;;;4965077;28;89627;-79
2023/06/28 09:18:43;;;;;;;96.30;60.22;;;22.70;72.00;;;;;;4987896;28;89050;-80
2023/06/28 09:21:08;;;;;;;99.63;60.40;;;22.60;71.70;;;;;;4960026;28;95374;-80
2023/06/28 09:23:35;;;;;;;93.75;58.40;;;22.60;72.50;;;;;;4982761;28;90123;-82
2023/06/28 09:26:00;;;;;;;94.88;59.35;;;22.70;72.00;;;;;;4967708;28;89488;-80
2023/06/28 09:28:34;;;;;;;98.25;60.50;;;22.70;72.80;;;;;;4967839;28;89339;-79
2023/06/28 09:31:01;;;;;;;95.60;60.33;;;22.60;72.70;;;;;;4986605;28;90053;-78
2023/06/28 09:33:27;;;;;;;95.15;60.88;;;22.70;73.00;;;;;;4965981;28;92779;-78
2023/06/28 09:35:56;;;;;;;95.38;61.00;;;22.60;71.80;;;;;;4984851;28;90300;-79
2023/06/28 09:38:23;;;;;;;100.10;60.85;;;22.70;73.10;;;;;;4988680;28;88622;-82
2023/06/28 09:40:56;;;;;;;100.70;61.60;;;22.90;72.60;;;;;;4986836;28;93055;-79
2023/06/28 09:43:23;;;;;;;96.03;61.08;;;22.80;72.20;;;;;;4983104;28;93152;-82
2023/06/28 09:45:48;;;;;;;100.68;62.45;;;22.90;72.50;;;;;;4960957;28;90411;-84
2023/06/28 09:48:14;;;;;;;98.68;60.92;;;23.00;73.40;;;;;;4969645;28;89449;-81
2023/06/28 09:50:46;;;;;;;100.53;60.67;;;23.00;71.10;;;;;;4985610;28;89565;-80
2023/06/28 09:53:15;;;;;;;103.68;62.20;;;23.10;72.20;;;;;;4962801;28;93339;-81
2023/06/28 09:55:45;;;;;;;101.03;62.00;;;23.20;71.90;;;;;;4956616;28;89908;-80
2023/06/28 09:58:11;;;;;;;100.30;62.00;;;23.10;71.00;;;;;;4978712;28;90024;-79
2023/06/28 10:00:38;;;;;;;96.80;61.15;;;23.10;71.80;;;;;;4978195;28;90418;-80
2023/06/28 10:03:06;;;;;;;96.90;61.03;;;23.20;70.80;;;;;;4981970;28;89524;-80
2023/06/28 10:05:35;;;;;;;96.18;60.75;;;23.20;70.20;;;;;;4965112;28;90056;-81
2023/06/28 10:08:16;;;;;;;95.30;59.63;;;23.30;70.50;;;;;;4963775;28;90947;-79
2023/06/28 10:10:44;;;;;;;98.78;61.97;;;23.40;70.80;;;;;;4978481;28;92933;-81
2023/06/28 10:13:20;;;;;;;104.10;62.83;;;23.50;70.80;;;;;;4983519;28;93618;-81
2023/06/28 10:16:11;;;;;;;96.95;61.40;;;23.60;69.70;;;;;;4975603;28;90651;-80
2023/06/28 10:18:37;;;;;;;101.95;62.90;;;23.40;69.50;;;;;;4967310;28;89778;-80
2023/06/28 10:21:06;;;;;;;97.95;60.60;;;23.50;71.30;;;;;;4984658;28;92182;-82
2023/06/28 10:23:36;;;;;;;102.70;63.53;;;23.50;69.20;;;;;;4969221;28;93580;-80
2023/06/28 10:26:05;;;;;;;100.65;63.20;;;23.70;69.50;;;;;;4986578;28;89595;-79
2023/06/28 10:28:35;;;;;;;99.43;62.55;;;23.70;69.30;;;;;;4984850;28;88181;-79
2023/06/28 10:31:03;;;;;;;105.00;63.97;;;23.80;70.20;;;;;;4984687;28;90266;-80
2023/06/28 10:33:33;;;;;;;100.30;62.65;;;23.80;70.50;;;;;;4982174;28;90801;-83
2023/06/28 10:36:02;;;;;;;97.70;62.55;;;23.90;68.80;;;;;;4986840;28;90562;-79
2023/06/28 10:38:32;;;;;;;102.10;63.25;;;24.00;68.90;;;;;;4985428;28;90055;-82
2023/06/28 10:40:58;;;;;;;98.70;61.88;;;24.00;69.20;;;;;;5003313;28;90213;-80
2023/06/28 10:43:24;;;;;;;103.43;64.10;;;24.00;68.90;;;;;;4980309;28;92313;-80
2023/06/28 10:45:52;;;;;;;103.28;64.60;;;24.00;68.90;;;;;;4968459;28;89897;-80
2023/06/28 10:48:22;;;;;;;99.55;62.17;;;24.00;69.80;;;;;;4964425;28;90327;-82
2023/06/28 10:50:50;;;;;;;103.15;64.00;;;24.10;70.00;;;;;;4981190;28;90736;-79
2023/06/28 10:53:33;;;;;;;101.85;63.78;;;24.10;69.10;;;;;;4985974;28;89332;-80
2023/06/28 10:56:08;;;;;;;100.85;62.47;;;24.10;69.00;;;;;;4982681;28;91094;-79
2023/06/28 10:58:41;;;;;;;98.72;61.95;;;24.10;68.90;;;;;;4981640;28;90392;-80
2023/06/28 11:01:11;;;;;;;100.68;63.35;;;24.20;68.10;;;;;;4979102;28;91001;-79
2023/06/28 11:03:44;;;;;;;100.70;63.30;;;24.20;68.30;;;;;;4981828;28;91467;-81
2023/06/28 11:06:12;;;;;;;102.60;64.22;;;24.20;69.20;;;;;;4968588;28;89616;-79
2023/06/28 11:08:45;;;;;;;102.97;63.97;;;24.10;70.70;;;;;;4963527;28;91372;-81
2023/06/28 11:11:36;;;;;;;106.45;64.20;;;24.00;70.70;;;;;;4978314;28;93384;-81
2023/06/28 11:14:32;;;;;;;106.28;65.07;;;24.00;70.30;;;;;;4962688;28;92697;-79
2023/06/28 11:17:01;;;;;;;100.95;63.53;;;24.10;69.60;;;;;;4977162;28;89310;-79
2023/06/28 11:19:27;;;;;;;106.10;64.38;;;24.10;70.00;;;;;;4976137;28;88439;-82
2023/06/28 11:21:57;;;;;;;102.60;64.50;;;24.20;69.70;;;;;;4975303;28;93092;-81
2023/06/28 11:24:42;;;;;;;103.95;64.72;;;24.20;69.90;;;;;;4977487;28;90326;-80
2023/06/28 11:27:19;;;;;;;102.30;64.13;;;24.10;70.70;;;;;;4957932;28;91450;-81
2023/06/28 11:29:53;;;;;;;105.57;65.13;;;24.20;70.30;;;;;;4976364;28;89992;-78
2023/06/28 11:32:26;;;;;;;105.57;65.78;;;24.20;71.00;;;;;;4979689;28;93479;-81
2023/06/28 11:34:54;;;;;;;99.63;62.45;;;24.30;69.70;;;;;;4962643;28;93546;-80
2023/06/28 11:37:21;;;;;;;108.50;65.88;;;24.40;70.10;;;;;;4978586;28;90468;-80
2023/06/28 11:39:48;;;;;;;102.68;64.90;;;24.40;68.70;;;;;;4982441;28;90545;-83
2023/06/28 11:42:14;;;;;;;107.53;66.30;;;24.40;69.50;;;;;;4984895;28;89717;-80
2023/06/28 11:44:47;;;;;;;103.22;65.38;;;24.40;68.80;;;;;;4981292;28;93401;-83
2023/06/28 11:47:23;;;;;;;108.57;65.57;;;24.50;68.00;;;;;;4980729;28;89952;-81
2023/06/28 11:49:49;;;;;;;101.85;64.75;;;24.60;67.60;;;;;;4960101;28;94349;-80
2023/06/28 11:52:20;;;;;;;101.57;64.93;;;24.70;67.40;;;;;;4964537;28;93708;-81
2023/06/28 11:54:45;;;;;;;98.72;62.90;;;24.70;66.70;;;;;;4982827;28;92603;-80
2023/06/28 11:57:11;;;;;;;105.82;65.63;;;24.60;65.00;;;;;;4980256;28;90834;-83
2023/06/28 11:59:44;;;;;;;103.20;65.47;;;24.70;64.00;;;;;;4977847;28;89448;-80
2023/06/28 12:02:10;;;;;;;106.95;65.65;;;24.90;65.10;;;;;;4975287;28;89750;-80
2023/06/28 12:04:37;;;;;;;107.47;66.95;;;24.90;64.30;;;;;;4960138;28;92720;-81
2023/06/28 12:07:04;;;;;;;103.32;65.68;;;24.90;65.20;;;;;;4977397;28;89466;-80
2023/06/28 12:09:33;;;;;;;110.13;66.13;;;24.80;66.50;;;;;;4979818;28;90910;-80
2023/06/28 12:12:06;;;;;;;103.72;65.25;;;24.70;65.70;;;;;;4973831;28;90062;-80
2023/06/28 12:14:39;;;;;;;104.65;64.85;;;24.60;66.40;;;;;;4978679;28;93199;-80
2023/06/28 12:17:06;;;;;;;103.25;64.25;;;24.50;66.60;;;;;;4974892;28;90674;-80
2023/06/28 12:19:33;;;;;;;103.32;64.53;;;24.50;67.50;;;;;;4960825;28;90295;-79
2023/06/28 12:22:06;;;;;;;105.30;65.93;;;24.60;66.50;;;;;;4962871;28;92617;-80
2023/06/28 12:24:37;;;;;;;105.57;65.28;;;24.60;66.70;;;;;;4987269;28;90005;-82